Preview of NWS' New Version of Forecast
This preview is not operational and should not be used for support decisions.

Terminal Aerodrome Forecast (TAF)

Issued by National Weather Service (NWS)

                            
112 
FTUS42 KKEY 180537
TAFEYW
TAF
KEYW 180537Z 1806/1906 08007KT P6SM SCT020 BKN250
     FM182100 07007KT P6SM VCTS SCT020CB OVC250
     FM190400 11007KT P6SM SCT020 SCT150=